Time;durP1;ratioP1;P1;durP2;ratioP2;P2;SDS_P1;SDS_P2;PMS_P1;PMS_P2;Temp;Humidity;BMP_temperature;BMP_pressure;BME280_temperature;BME280_humidity;BME280_pressure;Samples;Min_cycle;Max_cycle;Signal;HPM_P1;HPM_P2
2021/11/22 00:00:30;;;;;;;;;;;;;;;28.11;65.30;100892.41;5076052;28;69216;-39
2021/11/22 00:03:00;;;;;;;;;;;;;;;28.14;65.19;100897.38;5076474;27;66759;-38
2021/11/22 00:05:30;;;;;;;;;;;;;;;28.17;65.04;100896.97;5075901;27;70144;-40
2021/11/22 00:08:00;;;;;;;;;;;;;;;28.22;65.16;100901.75;5077299;27;65635;-38
2021/11/22 00:10:30;;;;;;;;;;;;;;;28.28;70.96;100911.75;5076476;27;69283;-40
2021/11/22 00:12:59;;;;;;;;;;;;;;;28.39;72.74;100913.00;5077572;27;66328;-40
2021/11/22 00:15:30;;;;;;;;;;;;;;;28.44;73.59;100918.66;5078129;27;69876;-39
2021/11/22 00:17:59;;;;;;;;;;;;;;;28.48;73.66;100926.16;5076359;27;65996;-40
2021/11/22 00:20:29;;;;;;;;;;;;;;;28.53;74.38;100928.25;5077138;27;70276;-40
2021/11/22 00:22:59;;;;;;;;;;;;;;;28.59;74.49;100934.72;5078308;27;66514;-40
2021/11/22 00:25:29;;;;;;;;;;;;;;;28.62;75.02;100939.69;5077107;27;70258;-40
2021/11/22 00:27:59;;;;;;;;;;;;;;;28.67;74.99;100931.84;5078846;27;65900;-39
2021/11/22 00:30:43;;;;;;;;;;;;;;;28.74;74.59;100940.75;5074947;27;69190;-40
2021/11/22 00:33:15;;;;;;;;;;;;;;;28.75;74.70;100945.09;5078047;27;66325;-40
2021/11/22 00:36:01;;;;;;;;;;;;;;;28.77;72.74;100961.94;5076303;27;70514;-40
2021/11/22 00:38:41;;;;;;;;;;;;;;;28.82;71.65;100964.03;5074011;27;66641;-39
2021/11/22 00:41:21;;;;;;;;;;;;;;;28.87;70.73;100970.50;5075755;27;70578;-39
2021/11/22 00:44:20;;;;;;;;;;;;;;;28.91;69.67;100979.00;5076629;27;66347;-40
2021/11/22 00:47:15;;;;;;;;;;;;;;;28.96;69.45;100988.16;5076009;27;69834;-40
2021/11/22 00:49:47;;;;;;;;;;;;;;;29.00;69.17;100993.16;5076703;27;66300;-40
2021/11/22 00:52:23;;;;;;;;;;;;;;;29.03;68.90;101000.84;5082902;27;70402;-38
2021/11/22 00:54:53;;;;;;;;;;;;;;;29.06;68.57;100997.75;5073818;27;67345;-40
2021/11/22 00:57:28;;;;;;;;;;;;;;;29.09;68.39;100997.38;5056127;27;70317;-40
2021/11/22 00:59:59;;;;;;;;;;;;;;;29.12;67.95;101002.34;5067905;27;65874;-40
2021/11/22 01:02:32;;;;;;;;;;;;;;;29.13;68.04;100998.59;5073102;27;70049;-39
2021/11/22 01:05:06;;;;;;;;;;;;;;;29.16;68.04;101000.91;5054300;28;66529;-39
2021/11/22 01:07:40;;;;;;;;;;;;;;;29.17;67.82;101010.69;5054681;27;70400;-40
2021/11/22 01:10:25;;;;;;;;;;;;;;;29.19;67.45;101008.59;5070629;27;66585;-40
2021/11/22 01:13:00;;;;;;;;;;;;;;;29.21;67.29;101017.31;5073136;27;70064;-41
2021/11/22 01:15:44;;;;;;;;;;;;;;;29.24;67.21;101014.22;5071633;27;65759;-40
2021/11/22 01:18:16;;;;;;;;;;;;;;;29.25;67.48;101010.44;5070602;27;70564;-39
2021/11/22 01:21:09;;;;;;;;;;;;;;;29.27;67.26;101019.19;5072629;27;66003;-40
2021/11/22 01:23:45;;;;;;;;;;;;;;;29.29;67.17;101009.03;5071369;27;70561;-38
2021/11/22 01:26:34;;;;;;;;;;;;;;;29.31;66.78;101012.34;5073503;27;66444;-38
2021/11/22 01:29:08;;;;;;;;;;;;;;;29.32;67.18;101024.81;5073302;27;69052;-39
2021/11/22 01:31:52;;;;;;;;;;;;;;;29.34;67.15;101025.44;5068702;27;67135;-39
2021/11/22 01:34:36;;;;;;;;;;;;;;;29.36;66.67;101026.09;5057671;27;69403;-40
2021/11/22 01:37:32;;;;;;;;;;;;;;;29.38;67.09;101032.09;5072728;27;66629;-39
2021/11/22 01:40:07;;;;;;;;;;;;;;;29.40;66.54;101037.31;5073404;27;69585;-39
2021/11/22 01:42:41;;;;;;;;;;;;;;;29.43;66.51;101041.47;5075936;27;66870;-40
2021/11/22 01:45:24;;;;;;;;;;;;;;;29.44;66.87;101043.13;5060274;27;70248;-39
2021/11/22 01:48:13;;;;;;;;;;;;;;;29.45;66.73;101045.63;5073773;27;65598;-40
2021/11/22 01:50:47;;;;;;;;;;;;;;;29.47;66.53;101043.53;5073781;27;69938;-40
2021/11/22 01:53:29;;;;;;;;;;;;;;;29.49;66.89;101051.44;5074310;27;66167;-39
2021/11/22 01:56:35;;;;;;;;;;;;;;;29.52;66.33;101061.84;5070303;27;70403;-40
2021/11/22 01:59:09;;;;;;;;;;;;;;;29.54;66.24;101059.75;5078432;27;66266;-41
2021/11/22 02:01:46;;;;;;;;;;;;;;;29.55;66.22;101050.59;5034830;28;69175;-39
2021/11/22 02:04:20;;;;;;;;;;;;;;;29.57;66.14;101064.75;5073930;27;65447;-39
2021/11/22 02:06:50;;;;;;;;;;;;;;;29.60;66.13;101064.34;5058427;28;70321;-39
2021/11/22 02:09:26;;;;;;;;;;;;;;;29.62;66.46;101064.97;5076731;27;66521;-39
2021/11/22 02:12:22;;;;;;;;;;;;;;;29.64;66.43;101057.50;5075772;27;69730;-39
2021/11/22 02:14:59;;;;;;;;;;;;;;;29.66;65.85;101063.53;5073983;27;66653;-39
2021/11/22 02:17:52;;;;;;;;;;;;;;;29.70;65.75;101056.69;5073022;27;70482;-40
2021/11/22 02:20:30;;;;;;;;;;;;;;;29.71;66.23;101050.22;5077076;27;66050;-39
2021/11/22 02:23:05;;;;;;;;;;;;;;;29.74;65.51;101044.41;5075354;27;69792;-40
2021/11/22 02:25:44;;;;;;;;;;;;;;;29.72;66.02;101045.66;5073205;27;66352;-39
2021/11/22 02:28:19;;;;;;;;;;;;;;;29.78;65.77;101044.81;5072585;27;70525;-39
2021/11/22 02:30:55;;;;;;;;;;;;;;;29.70;65.67;101037.75;5076852;27;66482;-39
2021/11/22 02:34:01;;;;;;;;;;;;;;;29.82;65.52;101055.00;5074350;27;69802;-39
2021/11/22 02:36:31;;;;;;;;;;;;;;;29.86;65.45;101057.28;5056871;28;65603;-39
2021/11/22 02:39:08;;;;;;;;;;;;;;;29.88;65.31;101056.03;5073354;27;68944;-39
2021/11/22 02:41:47;;;;;;;;;;;;;;;29.91;65.65;101061.03;5074593;27;65466;-39
2021/11/22 02:44:22;;;;;;;;;;;;;;;29.94;65.11;101055.19;5057232;28;70433;-39
2021/11/22 02:46:54;;;;;;;;;;;;;;;29.95;65.04;101051.47;5074292;27;65449;-39
2021/11/22 02:49:54;;;;;;;;;;;;;;;29.99;64.83;101057.28;5075561;27;70206;-39
2021/11/22 02:52:32;;;;;;;;;;;;;;;30.02;65.24;101043.34;5076479;27;65646;-40
2021/11/22 02:55:07;;;;;;;;;;;;;;;30.04;65.17;101038.56;5071718;28;69789;-40
2021/11/22 02:57:56;;;;;;;;;;;;;;;30.07;64.97;101027.31;5071933;27;65653;-40
2021/11/22 03:00:37;;;;;;;;;;;;;;;30.02;64.94;101027.09;5071036;27;69957;-40
2021/11/22 03:03:17;;;;;;;;;;;;;;;30.11;64.56;101039.34;5071976;27;66715;-39
2021/11/22 03:06:01;;;;;;;;;;;;;;;30.14;64.58;101022.69;5072006;27;70337;-39
2021/11/22 03:08:36;;;;;;;;;;;;;;;30.17;65.00;101016.88;5078117;27;66019;-39
2021/11/22 03:11:06;;;;;;;;;;;;;;;30.19;64.41;101003.94;5080157;27;70069;-39
2021/11/22 03:13:39;;;;;;;;;;;;;;;30.22;64.79;100997.31;5078209;27;66658;-39
2021/11/22 03:16:18;;;;;;;;;;;;;;;30.23;64.23;101005.25;5058545;27;69243;-39
2021/11/22 03:18:48;;;;;;;;;;;;;;;30.26;64.85;101007.50;5072828;27;66376;-39
2021/11/22 03:21:20;;;;;;;;;;;;;;;30.28;64.28;101005.44;5075027;27;69875;-41
2021/11/22 03:24:00;;;;;;;;;;;;;;;30.31;64.78;101000.63;5070069;27;66909;-39
2021/11/22 03:26:36;;;;;;;;;;;;;;;30.33;64.06;100998.53;5073191;27;69478;-40
2021/11/22 03:29:06;;;;;;;;;;;;;;;30.35;64.52;100991.88;5074500;27;66419;-40
2021/11/22 03:31:42;;;;;;;;;;;;;;;30.37;64.39;100989.78;5073473;27;69204;-40
2021/11/22 03:34:13;;;;;;;;;;;;;;;30.40;64.06;100989.34;5076623;27;65808;-39
2021/11/22 03:36:45;;;;;;;;;;;;;;;30.42;64.39;100994.53;5063086;27;68789;-40
2021/11/22 03:39:25;;;;;;;;;;;;;;;30.43;64.33;100994.34;5076778;27;65303;-39
2021/11/22 03:41:57;;;;;;;;;;;;;;;30.43;63.84;100986.22;5075898;27;70298;-40
2021/11/22 03:44:27;;;;;;;;;;;;;;;30.35;64.28;100958.56;5074115;27;66606;-40
2021/11/22 03:46:57;;;;;;;;;;;;;;;30.48;64.38;100980.16;5075985;27;70059;-39
2021/11/22 03:49:28;;;;;;;;;;;;;;;30.48;64.03;100970.16;5075781;27;66547;-39
2021/11/22 03:51:57;;;;;;;;;;;;;;;30.49;64.20;100977.22;5073734;27;70841;-38
2021/11/22 03:54:27;;;;;;;;;;;;;;;30.50;64.35;100968.06;5075594;27;67909;-39
2021/11/22 03:56:57;;;;;;;;;;;;;;;30.55;64.15;100961.19;5072195;27;70153;-39
2021/11/22 03:59:28;;;;;;;;;;;;;;;30.55;63.72;100953.88;5073433;27;66132;-41
2021/11/22 04:01:58;;;;;;;;;;;;;;;30.57;64.13;100951.78;5075324;27;69407;-40
2021/11/22 04:04:28;;;;;;;;;;;;;;;30.58;64.00;100950.75;5076032;27;66071;-39
2021/11/22 04:07:00;;;;;;;;;;;;;;;30.60;63.61;100945.94;5069438;27;69439;-39
2021/11/22 04:09:34;;;;;;;;;;;;;;;30.63;63.70;100945.50;5075015;27;65286;-39
2021/11/22 04:12:04;;;;;;;;;;;;;;;30.54;63.86;100930.56;5073855;27;69725;-39
2021/11/22 04:14:34;;;;;;;;;;;;;;;30.66;63.64;100939.66;5073945;27;66140;-39
2021/11/22 04:17:04;;;;;;;;;;;;;;;30.68;63.87;100931.31;5074376;27;70083;-40
2021/11/22 04:19:34;;;;;;;;;;;;;;;30.70;63.57;100931.91;5074084;27;65559;-39
2021/11/22 04:22:04;;;;;;;;;;;;;;;30.73;64.22;100924.22;5074525;27;70234;-39
2021/11/22 04:24:34;;;;;;;;;;;;;;;30.75;63.74;100920.44;5073658;27;65924;-39
2021/11/22 04:27:05;;;;;;;;;;;;;;;30.77;63.78;100923.75;5064914;27;70332;-39
2021/11/22 04:29:35;;;;;;;;;;;;;;;30.81;63.92;100925.00;5073463;27;66307;-39
2021/11/22 04:32:05;;;;;;;;;;;;;;;30.84;63.63;100917.28;5069326;27;71272;-39
2021/11/22 04:34:37;;;;;;;;;;;;;;;30.89;63.82;100905.78;5074886;27;65587;-39
2021/11/22 04:37:07;;;;;;;;;;;;;;;30.90;64.01;100902.03;5063002;27;70677;-39
2021/11/22 04:39:37;;;;;;;;;;;;;;;30.94;63.44;100887.00;5073838;27;66607;-38
2021/11/22 04:42:07;;;;;;;;;;;;;;;30.94;63.43;100881.59;5071504;27;69285;-39
2021/11/22 04:44:37;;;;;;;;;;;;;;;30.98;63.87;100882.81;5074523;27;66487;-38
2021/11/22 04:47:09;;;;;;;;;;;;;;;31.00;63.44;100867.16;5071730;27;70530;-38
2021/11/22 04:49:40;;;;;;;;;;;;;;;31.02;63.32;100867.75;5072069;27;65661;-38
2021/11/22 04:52:10;;;;;;;;;;;;;;;31.04;63.33;100871.09;5073704;27;69718;-38
2021/11/22 04:54:40;;;;;;;;;;;;;;;31.07;63.62;100859.81;5073481;27;65304;-39
2021/11/22 04:57:10;;;;;;;;;;;;;;;31.09;63.42;100857.72;5071588;27;70036;-38
2021/11/22 04:59:41;;;;;;;;;;;;;;;31.11;63.32;100846.63;5075675;27;66522;-38
2021/11/22 05:02:11;;;;;;;;;;;;;;;31.11;63.84;100844.75;5072268;27;70336;-40
2021/11/22 05:04:41;;;;;;;;;;;;;;;31.13;63.45;100845.34;5073314;27;65687;-39
2021/11/22 05:07:16;;;;;;;;;;;;;;;31.18;63.50;100839.28;5072742;27;69408;-40
2021/11/22 05:09:46;;;;;;;;;;;;;;;31.20;63.77;100825.50;5078657;27;66431;-39
2021/11/22 05:12:16;;;;;;;;;;;;;;;31.22;63.30;100815.25;5076233;27;69958;-39
2021/11/22 05:14:46;;;;;;;;;;;;;;;31.24;63.65;100811.28;5077538;27;66662;-40
2021/11/22 05:17:17;;;;;;;;;;;;;;;31.27;63.32;100810.00;5076865;27;69475;-39
2021/11/22 05:19:47;;;;;;;;;;;;;;;31.29;63.27;100799.78;5064731;27;67009;-39
2021/11/22 05:22:21;;;;;;;;;;;;;;;31.32;63.19;100799.31;5076791;27;70699;-39
2021/11/22 05:24:51;;;;;;;;;;;;;;;31.34;63.50;100794.47;5076800;27;65677;-40
2021/11/22 05:27:23;;;;;;;;;;;;;;;31.36;63.41;100781.56;5076414;27;68918;-40
2021/11/22 05:29:53;;;;;;;;;;;;;;;31.39;63.61;100778.41;5089104;27;65962;-39
2021/11/22 05:32:23;;;;;;;;;;;;;;;31.41;63.15;100761.94;5075221;27;70410;-38
2021/11/22 05:34:55;;;;;;;;;;;;;;;31.44;63.09;100750.63;5058985;27;65770;-40
2021/11/22 05:37:28;;;;;;;;;;;;;;;31.46;63.29;100757.47;5075143;27;68602;-39
2021/11/22 05:39:57;;;;;;;;;;;;;;;31.50;63.26;100752.44;5075101;27;65309;-39
2021/11/22 05:42:27;;;;;;;;;;;;;;;31.51;63.33;100746.78;5075494;27;69687;-39
2021/11/22 05:44:57;;;;;;;;;;;;;;;31.52;62.89;100753.84;5077327;27;66650;-39
2021/11/22 05:47:28;;;;;;;;;;;;;;;31.54;63.22;100740.91;5064206;27;70245;-39
2021/11/22 05:50:04;;;;;;;;;;;;;;;31.57;63.17;100736.91;5077867;27;66276;-39
2021/11/22 05:52:35;;;;;;;;;;;;;;;31.59;63.06;100738.34;5070462;27;69302;-38
2021/11/22 05:55:08;;;;;;;;;;;;;;;31.61;62.93;100729.97;5077278;27;65708;-40
2021/11/22 05:57:37;;;;;;;;;;;;;;;31.64;63.28;100728.69;5077018;27;69521;-39
2021/11/22 06:00:08;;;;;;;;;;;;;;;31.66;62.76;100726.56;5075981;27;66544;-39
2021/11/22 06:02:41;;;;;;;;;;;;;;;31.69;63.02;100717.97;5076592;27;70078;-39
2021/11/22 06:05:11;;;;;;;;;;;;;;;31.71;62.84;100721.28;5078842;27;66682;-39
2021/11/22 06:07:42;;;;;;;;;;;;;;;31.73;63.03;100719.16;5075034;27;69269;-39
2021/11/22 06:10:12;;;;;;;;;;;;;;;31.75;63.05;100711.63;5078205;27;66490;-40
2021/11/22 06:12:41;;;;;;;;;;;;;;;31.78;63.07;100713.88;5062830;27;69376;-39
2021/11/22 06:15:11;;;;;;;;;;;;;;;31.79;62.79;100702.00;5076414;27;66694;-40
2021/11/22 06:17:41;;;;;;;;;;;;;;;31.81;63.06;100703.38;5075342;27;70137;-40
2021/11/22 06:20:11;;;;;;;;;;;;;;;31.85;63.02;100698.34;5078012;27;66437;-39
2021/11/22 06:22:41;;;;;;;;;;;;;;;31.64;62.57;100663.59;5074481;27;68876;-38
2021/11/22 06:25:11;;;;;;;;;;;;;;;31.91;62.56;100697.44;5078396;27;67340;-39
2021/11/22 06:27:41;;;;;;;;;;;;;;;31.94;62.83;100702.41;5077924;27;70591;-39
2021/11/22 06:30:11;;;;;;;;;;;;;;;31.99;62.89;100699.00;5074806;27;66955;-40
2021/11/22 06:32:40;;;;;;;;;;;;;;;32.00;62.69;100673.53;5077817;27;70452;-39
2021/11/22 06:35:10;;;;;;;;;;;;;;;32.03;62.57;100673.88;5078109;27;66525;-39
2021/11/22 06:37:40;;;;;;;;;;;;;;;32.05;62.57;100660.91;5075527;27;69125;-39
2021/11/22 06:40:11;;;;;;;;;;;;;;;32.08;62.61;100648.75;5076771;27;66366;-39
2021/11/22 06:42:40;;;;;;;;;;;;;;;32.12;62.30;100646.41;5076404;27;70143;-39
2021/11/22 06:45:10;;;;;;;;;;;;;;;32.16;62.53;100650.31;5074412;27;66082;-39
2021/11/22 06:47:40;;;;;;;;;;;;;;;32.18;62.57;100653.59;5076438;27;69381;-39
2021/11/22 06:50:11;;;;;;;;;;;;;;;32.21;62.52;100645.00;5077902;27;66303;-39
2021/11/22 06:52:41;;;;;;;;;;;;;;;32.24;62.42;100636.41;5087679;27;70054;-39
2021/11/22 06:55:11;;;;;;;;;;;;;;;32.28;62.49;100637.56;5076632;27;66300;-39
2021/11/22 06:57:40;;;;;;;;;;;;;;;32.30;62.28;100635.44;5077361;27;69787;-39
2021/11/22 07:00:12;;;;;;;;;;;;;;;32.32;62.08;100627.91;5072714;27;66873;-39
2021/11/22 07:02:42;;;;;;;;;;;;;;;32.35;61.77;100627.44;5065249;27;69283;-39
2021/11/22 07:05:19;;;;;;;;;;;;;;;32.37;62.04;100633.41;5075224;27;66292;-39
2021/11/22 07:08:04;;;;;;;;;;;;;;;32.40;61.90;100630.25;5075604;27;69659;-39
2021/11/22 07:10:49;;;;;;;;;;;;;;;32.43;61.86;100618.94;5075849;27;66079;-38
2021/11/22 07:13:25;;;;;;;;;;;;;;;32.46;61.74;100609.50;5075317;27;69844;-38
2021/11/22 07:16:03;;;;;;;;;;;;;;;32.49;61.75;100601.72;5075830;27;64485;-38
2021/11/22 07:18:35;;;;;;;;;;;;;;;32.52;61.42;100600.41;5074118;27;70373;-39
2021/11/22 07:21:07;;;;;;;;;;;;;;;32.55;61.60;100593.69;5075905;27;66634;-39
2021/11/22 07:23:42;;;;;;;;;;;;;;;32.58;61.42;100604.06;5073230;27;69670;-39
2021/11/22 07:26:17;;;;;;;;;;;;;;;32.61;61.31;100598.16;5074406;27;66044;-39
2021/11/22 07:29:10;;;;;;;;;;;;;;;32.64;61.05;100601.22;5060917;27;63585;-38
2021/11/22 07:31:44;;;;;;;;;;;;;;;32.67;61.06;100599.91;5075276;27;65705;-39
2021/11/22 07:34:22;;;;;;;;;;;;;;;32.70;60.99;100602.13;5073973;27;70001;-39
2021/11/22 07:37:03;;;;;;;;;;;;;;;32.73;61.01;100601.66;5075489;27;65696;-39
2021/11/22 07:39:37;;;;;;;;;;;;;;;32.75;60.83;100594.09;5074313;27;70536;-39
2021/11/22 07:42:07;;;;;;;;;;;;;;;32.78;60.76;100590.91;5074066;27;66260;-38
2021/11/22 07:44:45;;;;;;;;;;;;;;;32.78;60.72;100574.59;5076092;27;70619;-39
2021/11/22 07:47:19;;;;;;;;;;;;;;;32.81;60.83;100582.28;5073566;28;67122;-39
2021/11/22 07:49:52;;;;;;;;;;;;;;;32.84;60.74;100589.13;5075951;27;70613;-38
2021/11/22 07:52:25;;;;;;;;;;;;;;;32.87;60.47;100589.44;5073654;27;65009;-38
2021/11/22 07:54:55;;;;;;;;;;;;;;;32.91;60.57;100598.78;5073522;27;69915;-39
2021/11/22 07:57:41;;;;;;;;;;;;;;;32.92;60.49;100600.44;5063375;27;66321;-39
2021/11/22 08:00:13;;;;;;;;;;;;;;;32.94;60.48;100598.31;5074945;27;70763;-39
2021/11/22 08:02:48;;;;;;;;;;;;;;;32.96;60.41;100600.78;5075104;27;65429;-39
2021/11/22 08:05:18;;;;;;;;;;;;;;;32.98;60.31;100592.38;5074441;27;69008;-39
2021/11/22 08:07:55;;;;;;;;;;;;;;;32.99;60.41;100604.88;5063398;27;66364;-39
2021/11/22 08:10:28;;;;;;;;;;;;;;;33.02;60.38;100593.59;5058468;27;70200;-40
2021/11/22 08:13:04;;;;;;;;;;;;;;;33.04;60.29;100599.59;5072381;27;65376;-40
2021/11/22 08:15:39;;;;;;;;;;;;;;;33.02;60.15;100601.75;5074559;27;69613;-39
2021/11/22 08:18:09;;;;;;;;;;;;;;;33.08;60.33;100606.22;5073689;27;65693;-40
2021/11/22 08:20:39;;;;;;;;;;;;;;;33.07;60.06;100596.38;5076219;27;69968;-40
2021/11/22 08:23:10;;;;;;;;;;;;;;;33.09;60.17;100591.53;5075516;27;67042;-39
2021/11/22 08:25:43;;;;;;;;;;;;;;;33.06;59.95;100600.19;5074852;27;70040;-39
2021/11/22 08:28:13;;;;;;;;;;;;;;;33.13;59.90;100606.31;5075616;27;65977;-39
2021/11/22 08:30:43;;;;;;;;;;;;;;;33.13;60.20;100604.41;5076666;27;68971;-40
2021/11/22 08:33:14;;;;;;;;;;;;;;;33.15;60.27;100604.16;5075379;27;65739;-39
2021/11/22 08:35:45;;;;;;;;;;;;;;;33.15;60.09;100602.28;5073977;27;70378;-39
2021/11/22 08:38:16;;;;;;;;;;;;;;;33.16;60.16;100600.38;5074881;27;66374;-39
2021/11/22 08:40:47;;;;;;;;;;;;;;;33.17;60.14;100602.03;5062016;27;69241;-41
2021/11/22 08:43:17;;;;;;;;;;;;;;;33.17;60.33;100607.47;5066361;27;65957;-39
2021/11/22 08:45:48;;;;;;;;;;;;;;;33.10;60.36;100602.19;5075872;27;69488;-39
2021/11/22 08:48:20;;;;;;;;;;;;;;;33.17;60.59;100620.22;5076883;27;66685;-39
2021/11/22 08:50:49;;;;;;;;;;;;;;;33.18;60.45;100633.56;5098117;27;70491;-39
2021/11/22 08:53:19;;;;;;;;;;;;;;;33.18;60.51;100636.28;5084753;27;66582;-39
2021/11/22 08:55:49;;;;;;;;;;;;;;;33.18;60.28;100644.44;5077485;27;69616;-39
2021/11/22 08:58:20;;;;;;;;;;;;;;;33.18;60.44;100649.88;5077899;27;65607;-39
2021/11/22 09:00:50;;;;;;;;;;;;;;;33.19;60.45;100650.72;5079063;27;69857;-39
2021/11/22 09:03:20;;;;;;;;;;;;;;;33.18;60.51;100655.31;5077905;27;66891;-40
2021/11/22 09:05:50;;;;;;;;;;;;;;;33.18;60.61;100654.50;5077213;27;70051;-40
2021/11/22 09:08:20;;;;;;;;;;;;;;;33.15;60.86;100645.78;5078994;28;67111;-40
2021/11/22 09:10:51;;;;;;;;;;;;;;;33.18;60.67;100652.59;5077745;27;70346;-40
2021/11/22 09:13:21;;;;;;;;;;;;;;;33.18;60.57;100647.16;5078491;27;65973;-38
2021/11/22 09:15:51;;;;;;;;;;;;;;;33.09;60.61;100632.31;5077335;27;69208;-40
2021/11/22 09:18:21;;;;;;;;;;;;;;;33.18;60.50;100646.34;5076258;27;66598;-40
2021/11/22 09:20:52;;;;;;;;;;;;;;;33.17;60.63;100640.06;5079450;27;70335;-40
2021/11/22 09:23:22;;;;;;;;;;;;;;;33.17;60.65;100644.69;5078111;27;65209;-39
2021/11/22 09:25:52;;;;;;;;;;;;;;;33.15;60.67;100642.19;5078124;27;70132;-40
2021/11/22 09:28:22;;;;;;;;;;;;;;;33.15;60.61;100658.50;5076300;27;65807;-39
2021/11/22 09:30:52;;;;;;;;;;;;;;;33.08;60.88;100658.66;5076828;27;70318;-39
2021/11/22 09:33:22;;;;;;;;;;;;;;;33.15;60.63;100677.53;5058898;28;66236;-39
2021/11/22 09:35:57;;;;;;;;;;;;;;;33.13;60.70;100682.41;5078639;27;70351;-40
2021/11/22 09:38:27;;;;;;;;;;;;;;;33.11;60.74;100685.34;5075499;27;66110;-40
2021/11/22 09:40:57;;;;;;;;;;;;;;;33.10;61.06;100688.31;5078460;27;70680;-41
2021/11/22 09:43:29;;;;;;;;;;;;;;;33.09;61.00;100694.81;5077287;27;66504;-40
2021/11/22 09:46:00;;;;;;;;;;;;;;;33.08;60.80;100699.44;5075570;27;69523;-40
2021/11/22 09:48:30;;;;;;;;;;;;;;;33.07;60.94;100705.09;5077128;27;65932;-40
2021/11/22 09:51:00;;;;;;;;;;;;;;;33.05;60.84;100708.06;5078119;27;69817;-40
2021/11/22 09:53:31;;;;;;;;;;;;;;;33.05;61.01;100718.09;5072566;27;65311;-39
2021/11/22 09:56:01;;;;;;;;;;;;;;;33.03;60.83;100729.19;5078404;27;69877;-39
2021/11/22 09:58:31;;;;;;;;;;;;;;;33.01;61.16;100734.03;5077210;27;65976;-39
2021/11/22 10:01:03;;;;;;;;;;;;;;;32.93;61.28;100735.22;5076647;27;70225;-39
2021/11/22 10:03:34;;;;;;;;;;;;;;;32.98;61.17;100744.53;5076186;27;66599;-41
2021/11/22 10:06:04;;;;;;;;;;;;;;;32.97;60.84;100753.78;5065339;27;69792;-41
2021/11/22 10:08:42;;;;;;;;;;;;;;;32.94;61.20;100750.44;5073802;27;66233;-41
2021/11/22 10:11:16;;;;;;;;;;;;;;;32.91;61.20;100750.94;5065983;27;69720;-39
2021/11/22 10:13:46;;;;;;;;;;;;;;;32.79;61.27;100741.13;5075128;27;66484;-39
2021/11/22 10:16:16;;;;;;;;;;;;;;;32.88;61.37;100762.28;5065649;27;69039;-39
2021/11/22 10:18:51;;;;;;;;;;;;;;;32.87;61.33;100766.03;5076213;27;67027;-40
2021/11/22 10:21:37;;;;;;;;;;;;;;;32.85;61.32;100776.34;5074964;27;70153;-40
2021/11/22 10:24:09;;;;;;;;;;;;;;;32.83;61.32;100770.31;5077332;27;67491;-39
2021/11/22 10:26:39;;;;;;;;;;;;;;;32.81;61.29;100780.56;5074115;27;69020;-38
2021/11/22 10:29:10;;;;;;;;;;;;;;;32.79;61.40;100780.00;5077869;27;66464;-39
2021/11/22 10:31:40;;;;;;;;;;;;;;;32.77;61.31;100787.56;5077397;27;69474;-39
2021/11/22 10:34:14;;;;;;;;;;;;;;;32.76;61.56;100782.34;5073847;27;65014;-39
2021/11/22 10:36:44;;;;;;;;;;;;;;;32.75;61.32;100777.97;5076390;27;69279;-38
2021/11/22 10:39:16;;;;;;;;;;;;;;;32.71;61.38;100772.19;5076543;27;66222;-38
2021/11/22 10:41:46;;;;;;;;;;;;;;;32.68;61.30;100767.22;5075260;27;70917;-39
2021/11/22 10:44:16;;;;;;;;;;;;;;;32.69;61.55;100766.16;5077202;27;65424;-40
2021/11/22 10:49:46;;;;;;;;;;;;;;;32.65;61.57;100784.84;5076122;27;65558;-39
2021/11/22 10:52:37;;;;;;;;;;;;;;;32.54;61.69;100768.50;5075912;27;70063;-40
2021/11/22 10:55:27;;;;;;;;;;;;;;;32.59;62.45;100791.19;5072303;27;66674;-41
2021/11/22 10:58:00;;;;;;;;;;;;;;;32.59;62.33;100795.78;5076484;27;70252;-41
2021/11/22 11:00:32;;;;;;;;;;;;;;;32.58;62.33;100788.72;5078162;27;65958;-41
2021/11/22 11:03:06;;;;;;;;;;;;;;;32.30;62.52;100765.72;5078130;27;70348;-40
2021/11/22 11:05:37;;;;;;;;;;;;;;;32.48;62.76;100789.28;5079524;27;66149;-40
2021/11/22 11:08:09;;;;;;;;;;;;;;;32.52;62.75;100800.53;5078862;27;69729;-41
2021/11/22 11:10:40;;;;;;;;;;;;;;;32.42;63.60;100798.31;5080167;27;66231;-42
2021/11/22 11:13:43;;;;;;;;;;;;;;;32.44;64.72;100816.03;5077259;27;68765;-40
2021/11/22 11:16:14;;;;;;;;;;;;;;;32.42;64.65;100812.72;5075676;27;66096;-41
2021/11/22 11:18:56;;;;;;;;;;;;;;;32.42;64.06;100820.88;5076409;27;70003;-40
2021/11/22 11:21:33;;;;;;;;;;;;;;;32.41;64.04;100824.66;5073969;27;66941;-41
2021/11/22 11:24:05;;;;;;;;;;;;;;;32.40;63.75;100830.31;5079665;27;69854;-41
2021/11/22 11:26:36;;;;;;;;;;;;;;;32.37;63.91;100831.59;5073275;27;66062;-40
2021/11/22 11:29:07;;;;;;;;;;;;;;;32.35;63.99;100828.31;5074221;27;69259;-41
2021/11/22 11:31:37;;;;;;;;;;;;;;;32.35;63.82;100844.59;5075089;27;67690;-41
2021/11/22 11:34:09;;;;;;;;;;;;;;;32.33;64.03;100846.69;5069074;27;69734;-41
2021/11/22 11:36:40;;;;;;;;;;;;;;;32.32;63.68;100850.47;5058939;28;66284;-40
2021/11/22 11:39:12;;;;;;;;;;;;;;;32.31;63.99;100848.81;5055121;28;70577;-40
2021/11/22 11:42:17;;;;;;;;;;;;;;;32.28;63.67;100852.00;5073627;27;65309;-40
2021/11/22 11:45:05;;;;;;;;;;;;;;;32.25;63.99;100857.88;5046058;28;70439;-41
2021/11/22 11:47:49;;;;;;;;;;;;;;;32.26;65.17;100859.53;5070952;27;65663;-40
2021/11/22 11:50:25;;;;;;;;;;;;;;;32.28;65.62;100860.94;5064456;27;70120;-40
2021/11/22 11:53:02;;;;;;;;;;;;;;;32.26;65.88;100867.66;5075374;27;65994;-41
2021/11/22 11:55:33;;;;;;;;;;;;;;;32.25;66.00;100866.03;5090349;27;70519;-40
2021/11/22 11:58:24;;;;;;;;;;;;;;;32.24;66.09;100872.53;5079422;27;65571;-40
2021/11/22 12:00:59;;;;;;;;;;;;;;;32.00;67.57;100864.25;5077341;27;70765;-42
2021/11/22 12:03:31;;;;;;;;;;;;;;;31.76;67.28;100873.28;5078563;27;66094;-40
2021/11/22 12:06:02;;;;;;;;;;;;;;;31.53;68.33;100869.38;5077680;27;69188;-41
2021/11/22 12:08:33;;;;;;;;;;;;;;;31.45;69.37;100871.56;5079406;27;66813;-40
2021/11/22 12:11:04;;;;;;;;;;;;;;;31.34;68.94;100875.78;5076768;27;69193;-41
2021/11/22 12:13:47;;;;;;;;;;;;;;;31.27;68.88;100880.47;5078433;27;66328;-41
2021/11/22 12:16:36;;;;;;;;;;;;;;;31.24;69.96;100870.91;5064902;27;70943;-40
2021/11/22 12:19:24;;;;;;;;;;;;;;;31.22;71.12;100874.88;5077903;27;66414;-40
2021/11/22 12:22:06;;;;;;;;;;;;;;;31.04;70.24;100844.00;5079112;27;71261;-40
2021/11/22 12:24:39;;;;;;;;;;;;;;;31.16;69.93;100865.75;5078885;27;65709;-40
2021/11/22 12:27:28;;;;;;;;;;;;;;;31.11;69.79;100882.69;5078731;27;70619;-39
2021/11/22 12:29:59;;;;;;;;;;;;;;;30.90;66.99;100877.66;5065765;27;65896;-39
2021/11/22 12:32:31;;;;;;;;;;;;;;;30.68;64.60;100883.41;5079160;27;69830;-40
2021/11/22 12:35:16;;;;;;;;;;;;;;;30.44;62.56;100886.91;5066572;27;65836;-41
2021/11/22 12:37:50;;;;;;;;;;;;;;;30.26;60.89;100893.03;5076867;28;69396;-41
2021/11/22 12:40:25;;;;;;;;;;;;;;;30.09;59.33;100884.56;5064659;27;66454;-40
2021/11/22 12:42:58;;;;;;;;;;;;;;;29.92;57.64;100894.19;5078428;27;70022;-40
2021/11/22 12:45:28;;;;;;;;;;;;;;;29.75;56.62;100891.94;5077516;27;66897;-40
2021/11/22 12:48:17;;;;;;;;;;;;;;;29.65;55.34;100888.88;5075379;27;69875;-41
2021/11/22 12:50:57;;;;;;;;;;;;;;;29.54;55.83;100892.19;5069132;27;65814;-42
2021/11/22 12:53:27;;;;;;;;;;;;;;;29.49;58.41;100891.97;5076632;27;69479;-38
2021/11/22 12:55:58;;;;;;;;;;;;;;;29.45;57.52;100888.03;5078000;27;65556;-39
2021/11/22 12:58:32;;;;;;;;;;;;;;;29.39;56.24;100901.38;5076543;27;69811;-38
2021/11/22 13:01:04;;;;;;;;;;;;;;;29.30;55.36;100897.19;5077146;27;66641;-39
2021/11/22 13:03:49;;;;;;;;;;;;;;;29.20;54.57;100898.66;5078550;27;69809;-40
2021/11/22 13:06:32;;;;;;;;;;;;;;;29.14;53.49;100897.63;5077874;27;65953;-39
2021/11/22 13:09:02;;;;;;;;;;;;;;;29.05;52.38;100901.56;5076416;27;68853;-39
2021/11/22 13:11:46;;;;;;;;;;;;;;;28.98;51.64;100908.81;5080223;27;66055;-40
2021/11/22 13:14:21;;;;;;;;;;;;;;;28.94;51.57;100903.81;5077192;27;70501;-39